Data for 12/04/2012

Time Sea-Level Adjusted Pressure Absolute Pressure Temperature Relative Humidity Dew Point   
(mb) (inHg) (mb) (inHg) (C) (F) (%) (C) (F)
00:05 1021 30.15 851 25.13 0.7 33.3 51 -8.2 17.3
00:10 1021 30.15 851 25.13 0.6 33.1 51 -8.5 16.7
00:15 1021 30.15 851 25.13 0.8 33.4 50 -8.5 16.8
00:20 1021 30.15 851 25.13 0.8 33.5 49 -8.7 16.4
00:25 1021 30.15 851 25.13 0.9 33.6 49 -8.6 16.5
00:30 1022 30.18 851 25.13 0.8 33.5 51 -8.1 17.4
00:35 1022 30.18 851 25.13 0.1 32.2 54 -8.1 17.4
00:40 1022 30.18 851 25.13 -0.1 31.9 53 -8.5 16.6
00:45 1022 30.18 851 25.13 -0.2 31.7 56 -8 17.6
00:50 1022 30.18 851 25.13 -0.5 31.2 54 -8.6 16.5
00:55 1022 30.18 851 25.13 -0.2 31.7 55 -8.3 17.1
01:00 1022 30.18 851 25.13 -0.4 31.3 54 -8.5 16.7
01:05 1022 30.18 851 25.13 -0.3 31.5 53 -8.7 16.4
01:10 1022 30.18 851 25.13 -0.3 31.4 56 -8.1 17.5
01:15 1021 30.15 851 25.13 -0.8 30.5 57 -8.3 17.1
01:20 1021 30.15 851 25.13 -1 30.2 58 -8.3 17
01:25 1021 30.15 851 25.13 -1.1 29.9 59 -8.2 17.2
01:30 1021 30.15 851 25.13 -1.2 29.9 58 -8.5 16.8
01:35 1021 30.15 851 25.13 -1.1 30 58 -8.4 16.9
01:40 1022 30.18 851 25.13 -1.1 30 58 -8.3 17
01:45 1022 30.18 851 25.13 -1.1 30 60 -8 17.6
01:50 1021 30.15 851 25.13 -1.2 29.8 59 -8.3 17
01:55 1021 30.15 851 25.13 -1.2 29.8 60 -8 17.6
02:00 1021 30.15 851 25.13 -1.5 29.4 60 -8.2 17.3
02:05 1021 30.15 850 25.1 -1.4 29.4 59 -8.4 16.9
02:10 1021 30.15 850 25.1 -1.2 29.9 57 -8.5 16.7
02:15 1021 30.15 850 25.1 -1.1 30 58 -8.3 17
02:20 1021 30.15 850 25.1 -1.2 29.9 57 -8.7 16.3
02:25 1021 30.15 850 25.1 -1 30.2 57 -8.4 16.9
02:30 1021 30.15 850 25.1 -1.1 30.1 56 -8.8 16.2
02:35 1021 30.15 850 25.1 -0.9 30.4 55 -8.8 16.2
02:40 1021 30.15 850 25.1 -0.9 30.4 56 -8.6 16.4
02:45 1021 30.15 850 25.1 -1.1 30 57 -8.6 16.6
02:50 1021 30.15 850 25.1 -1.2 29.9 55 -9.1 15.7
02:55 1021 30.15 850 25.1 -1.1 30 57 -8.7 16.4
03:00 1021 30.15 850 25.1 -1.1 29.9 56 -8.8 16.1
03:05 1020 30.12 850 25.1 -1.1 30 57 -8.7 16.4
03:10 1020 30.12 850 25.1 -1.2 29.8 56 -8.9 16.1
03:15 1021 30.15 850 25.1 -1.1 30 57 -8.7 16.4
03:20 1021 30.15 850 25.1 -1 30.2 56 -8.7 16.4
03:25 1021 30.15 850 25.1 -1.1 30 57 -8.6 16.5
03:30 1020 30.12 850 25.1 -1.1 30.1 57 -8.6 16.6
03:35 1020 30.12 850 25.1 -1.1 30.1 55 -8.9 15.9
03:40 1020 30.12 850 25.1 -0.8 30.5 56 -8.6 16.5
03:45 1020 30.12 850 25.1 -1.1 30 57 -8.6 16.4
03:50 1020 30.12 850 25.1 -1 30.1 56 -8.6 16.5
03:55 1020 30.12 849 25.07 -0.8 30.5 56 -8.5 16.6
04:00 1020 30.12 849 25.07 -0.7 30.7 56 -8.5 16.7
04:05 1020 30.12 849 25.07 -0.7 30.8 56 -8.4 16.9
04:10 1020 30.12 849 25.07 -0.7 30.8 57 -8.2 17.2
04:15 1020 30.12 849 25.07 -0.8 30.6 57 -8.3 17.1
04:20 1020 30.12 849 25.07 -0.6 30.9 56 -8.3 17
04:25 1020 30.12 849 25.07 -0.5 31 56 -8.2 17.2
04:30 1020 30.12 849 25.07 -0.3 31.4 56 -8.1 17.4
04:35 1020 30.12 849 25.07 -0.5 31.1 57 -7.9 17.7
04:40 1020 30.12 849 25.07 -0.8 30.5 58 -8.1 17.4
04:45 1020 30.12 849 25.07 -0.8 30.5 58 -8 17.6
04:50 1020 30.12 849 25.07 -1.1 30.1 59 -8.1 17.4
04:55 1020 30.12 849 25.07 -1.1 30 59 -8.1 17.5
05:00 1020 30.12 849 25.07 -1.1 30 59 -8.1 17.4
05:05 1019 30.09 849 25.07 -1 30.3 58 -8.2 17.3
05:10 1019 30.09 848 25.04 -0.8 30.6 58 -8.1 17.4
05:15 1019 30.09 848 25.04 -0.5 31.1 58 -7.9 17.8
05:20 1019 30.09 848 25.04 -0.5 31.2 57 -7.9 17.7
05:25 1019 30.09 848 25.04 0 32 56 -7.9 17.8
05:30 1019 30.09 848 25.04 0.1 32.1 56 -7.7 18.1
05:35 1019 30.09 848 25.04 0.2 32.3 56 -7.7 18.2
05:40 1019 30.09 848 25.04 0.3 32.5 55 -7.6 18.3
05:45 1019 30.09 848 25.04 0.3 32.5 54 -7.9 17.9
05:50 1019 30.09 848 25.04 0.5 32.8 54 -7.7 18.2
05:55 1019 30.09 848 25.04 0.6 33 53 -7.9 17.8
06:00 1019 30.09 848 25.04 0.7 33.3 53 -7.8 17.9
06:05 1019 30.09 848 25.04 0.8 33.5 53 -7.6 18.3
06:10 1019 30.09 848 25.04 0.9 33.6 53 -7.6 18.2
06:15 1019 30.09 848 25.04 0.9 33.6 52 -8 17.7
06:20 1019 30.09 848 25.04 1.1 34.1 51 -7.8 18
06:25 1019 30.09 848 25.04 1 33.8 53 -7.5 18.6
06:30 1018 30.06 848 25.04 0.9 33.6 54 -7.5 18.6
06:35 1018 30.06 848 25.04 1 33.7 52 -7.7 18.2
06:40 1019 30.09 848 25.04 1 33.8 53 -7.5 18.4
06:45 1018 30.06 848 25.04 1 33.7 54 -7.4 18.7
06:50 1018 30.06 848 25.04 0.9 33.6 54 -7.4 18.6
06:55 1018 30.06 848 25.04 0.8 33.5 54 -7.4 18.6
07:00 1018 30.06 848 25.04 0.9 33.6 54 -7.4 18.8
07:05 1018 30.06 848 25.04 0.9 33.7 53 -7.5 18.5
07:10 1018 30.06 848 25.04 1 33.9 54 -7.2 19
07:15 1018 30.06 848 25.04 1.1 34 53 -7.4 18.7
07:20 1018 30.06 848 25.04 1.2 34.1 53 -7.3 18.8
07:25 1018 30.06 847 25.01 1.2 34.1 53 -7.4 18.7
07:30 1018 30.06 847 25.01 1.2 34.2 53 -7.2 19
07:35 1018 30.06 847 25.01 1.2 34.2 54 -7.2 19
07:40 1018 30.06 847 25.01 1.2 34.1 54 -7.2 19
07:45 1018 30.06 847 25.01 1.1 34 53 -7.3 18.8
07:50 1018 30.06 847 25.01 1.3 34.4 53 -7.2 19.1
07:55 1018 30.06 847 25.01 1.3 34.4 53 -7.1 19.2
08:00 1018 30.06 847 25.01 1.4 34.5 54 -7 19.3
08:05 1018 30.06 847 25.01 1.4 34.6 53 -7.1 19.2
08:10 1018 30.06 847 25.01 1.5 34.8 53 -6.9 19.5
08:15 1018 30.06 847 25.01 1.7 35.1 51 -7.3 18.9
08:20 1018 30.06 847 25.01 1.8 35.3 50 -7.6 18.4
08:25 1018 30.06 847 25.01 1.8 35.3 54 -6.6 20.1
08:30 1018 30.06 847 25.01 1.5 34.7 54 -6.8 19.7
08:35 1018 30.06 847 25.01 1.4 34.5 55 -6.7 20
08:40 1018 30.06 847 25.01 1.5 34.6 54 -6.8 19.8
08:45 1018 30.06 847 25.01 1.5 34.7 55 -6.7 20
08:50 1018 30.06 847 25.01 1.7 35 53 -7 19.4
08:55 1018 30.06 847 25.01 1.9 35.5 53 -6.7 20
09:00 1018 30.06 847 25.01 1.8 35.2 55 -6.4 20.5
09:05 1018 30.06 847 25.01 1.7 35.1 55 -6.3 20.7
09:10 1017 30.03 847 25.01 1.7 35 55 -6.4 20.5
09:15 1017 30.03 846 24.98 1.7 35 55 -6.4 20.4
09:20 1017 30.03 846 24.98 1.8 35.2 55 -6.3 20.7
09:25 1017 30.03 846 24.98 1.9 35.4 55 -6.2 20.8
09:30 1017 30.03 846 24.98 2 35.6 56 -5.9 21.5
09:35 1017 30.03 846 24.98 2 35.6 57 -5.6 21.9
09:40 1017 30.03 846 24.98 2 35.6 57 -5.7 21.7
09:45 1017 30.03 846 24.98 2.2 36 57 -5.5 22.2
09:50 1017 30.03 846 24.98 2.2 36 56 -5.6 21.9
09:55 1017 30.03 846 24.98 2.2 36 57 -5.3 22.4
10:00 1017 30.03 846 24.98 2.2 36 58 -5.3 22.5
10:05 1017 30.03 846 24.98 2.3 36.1 58 -5.2 22.6
10:10 1017 30.03 846 24.98 2.4 36.3 57 -5.2 22.6
10:15 1017 30.03 847 25.01 2.4 36.4 58 -5.1 22.9
10:20 1017 30.03 846 24.98 2.5 36.6 58 -5 23
10:25 1017 30.03 847 25.01 2.7 36.8 57 -5 23
10:30 1017 30.03 847 25.01 2.8 37 57 -4.8 23.3
10:35 1017 30.03 847 25.01 2.8 37.1 57 -4.9 23.2
10:40 1017 30.03 847 25.01 2.9 37.2 57 -4.8 23.4
10:45 1017 30.03 847 25.01 2.9 37.2 57 -4.7 23.5
10:50 1018 30.06 847 25.01 3 37.4 56 -4.9 23.1
10:55 1017 30.03 847 25.01 3.1 37.5 57 -4.5 23.8
11:00 1018 30.06 847 25.01 2.9 37.3 59 -4.3 24.2
11:05 1018 30.06 847 25.01 2.9 37.2 59 -4.3 24.2
11:10 1018 30.06 847 25.01 2.9 37.2 58 -4.5 23.9
11:15 1017 30.03 847 25.01 3.1 37.6 58 -4.4 24.1
11:20 1017 30.03 847 25.01 3.3 37.9 57 -4.4 24
11:25 1017 30.03 847 25.01 3.5 38.2 56 -4.5 23.9
11:30 1017 30.03 847 25.01 3.6 38.5 56 -4.5 24
11:35 1017 30.03 847 25.01 3.6 38.6 54 -4.7 23.5
11:40 1018 30.06 847 25.01 3.7 38.7 54 -4.7 23.5
11:45 1018 30.06 847 25.01 3.7 38.7 54 -4.7 23.6
11:50 1018 30.06 847 25.01 3.8 38.9 54 -4.7 23.5
11:55 1018 30.06 847 25.01 4 39.1 55 -4.2 24.5
12:00 1018 30.06 847 25.01 4.1 39.5 54 -4.4 24
12:05 1018 30.06 847 25.01 4.2 39.5 54 -4.4 24.1
12:10 1018 30.06 847 25.01 4.3 39.8 52 -4.6 23.8
12:15 1018 30.06 847 25.01 4.4 40 52 -4.5 23.9
12:20 1018 30.06 847 25.01 4.5 40.1 52 -4.4 24.1
12:25 1018 30.06 847 25.01 4.9 40.7 52 -4.2 24.5
12:30 1018 30.06 847 25.01 5 41 51 -4.4 24.1
12:35 1018 30.06 847 25.01 5 41 52 -4.1 24.6
12:40 1018 30.06 847 25.01 5.1 41.1 52 -4 24.8
12:45 1018 30.06 847 25.01 5.1 41.2 52 -4 24.8
12:50 1018 30.06 847 25.01 5 41.1 52 -3.9 25
12:55 1018 30.06 847 25.01 5.1 41.2 51 -4.3 24.3
13:00 1018 30.06 847 25.01 5.2 41.4 52 -3.8 25.1
13:05 1018 30.06 847 25.01 5.4 41.7 51 -4.1 24.7
13:10 1017 30.03 847 25.01 5.5 41.8 49 -4.5 23.9
13:15 1017 30.03 847 25.01 5.7 42.2 48 -4.4 24.1
13:20 1017 30.03 847 25.01 5.8 42.5 49 -4.1 24.6
13:25 1017 30.03 847 25.01 5.9 42.6 49 -4 24.9
13:30 1017 30.03 847 25.01 6.2 43.1 47 -4.2 24.5
13:35 1017 30.03 847 25.01 6.4 43.6 47 -3.9 24.9
13:40 1017 30.03 847 25.01 6.4 43.6 48 -3.9 25
13:45 1017 30.03 847 25.01 6.4 43.6 48 -3.8 25.1
13:50 1018 30.06 847 25.01 6.5 43.8 48 -3.6 25.5
13:55 1017 30.03 847 25.01 6.6 43.8 51 -3 26.7
14:00 1018 30.06 847 25.01 6.3 43.4 51 -3 26.6
14:05 1018 30.06 847 25.01 6.3 43.3 52 -2.8 26.9
14:10 1018 30.06 847 25.01 6.4 43.5 51 -2.9 26.7
14:15 1017 30.03 847 25.01 6.3 43.4 51 -3.1 26.4
14:20 1017 30.03 847 25.01 6.7 44 49 -3.2 26.2
14:25 1017 30.03 847 25.01 7.1 44.8 47 -3.5 25.7
14:30 1017 30.03 847 25.01 7.5 45.6 47 -2.9 26.7
14:35 1017 30.03 847 25.01 7.5 45.5 47 -3.1 26.5
14:40 1017 30.03 846 24.98 7.5 45.5 49 -2.6 27.3
14:45 1017 30.03 846 24.98 7.4 45.2 50 -2.4 27.7
14:50 1017 30.03 846 24.98 7.2 44.9 52 -2.1 28.2
14:55 1017 30.03 846 24.98 7 44.6 51 -2.3 27.8
15:00 1017 30.03 846 24.98 6.8 44.2 51 -2.6 27.2
15:05 1017 30.03 846 24.98 6.7 44.1 51 -2.8 27
15:10 1017 30.03 846 24.98 7.1 44.7 50 -2.5 27.5
15:15 1017 30.03 846 24.98 7 44.7 53 -2 28.4
15:20 1017 30.03 846 24.98 6.9 44.5 51 -2.5 27.5
15:25 1017 30.03 846 24.98 7 44.5 52 -2.2 28
15:30 1017 30.03 846 24.98 6.9 44.5 52 -2.3 27.8
15:35 1017 30.03 846 24.98 6.8 44.3 53 -2.1 28.1
15:40 1017 30.03 846 24.98 6.7 44.1 52 -2.4 27.6
15:45 1017 30.03 846 24.98 6.8 44.3 52 -2.4 27.6
15:50 1017 30.03 846 24.98 6.9 44.4 51 -2.5 27.5
15:55 1017 30.03 846 24.98 7 44.5 50 -2.7 27.1
16:00 1017 30.03 846 24.98 7.3 45.1 49 -2.8 26.9
16:05 1017 30.03 846 24.98 7.7 45.8 49 -2.3 27.8
16:10 1017 30.03 846 24.98 7.7 45.8 48 -2.7 27.1
16:15 1017 30.03 846 24.98 7.7 45.9 49 -2.4 27.7
16:20 1017 30.03 846 24.98 7.6 45.7 49 -2.4 27.7
16:25 1017 30.03 846 24.98 7.5 45.4 50 -2.3 27.8
16:30 1017 30.03 846 24.98 7.7 45.8 50 -2.2 28.1
16:35 1017 30.03 846 24.98 7.6 45.6 49 -2.3 27.8
16:40 1017 30.03 846 24.98 7.9 46.2 47 -2.7 27.2
16:45 1017 30.03 846 24.98 8.1 46.6 47 -2.6 27.3
16:50 1017 30.03 846 24.98 8.4 47.1 45 -2.7 27.1
16:55 1017 30.03 846 24.98 8.4 47.2 47 -2.3 27.8
17:00 1017 30.03 846 24.98 8.4 47.1 47 -2.4 27.7
17:05 1017 30.03 846 24.98 8.2 46.7 48 -2.2 28.1
17:10 1017 30.03 846 24.98 8.2 46.8 48 -2.1 28.2
17:15 1017 30.03 846 24.98 8 46.4 48 -2.2 28.1
17:20 1017 30.03 846 24.98 8.1 46.6 46 -2.6 27.2
17:25 1017 30.03 846 24.98 8.6 47.5 45 -2.6 27.4
17:30 1017 30.03 846 24.98 8.6 47.5 46 -2.3 27.9
17:35 1017 30.03 846 24.98 8.4 47.1 48 -2 28.4
17:40 1017 30.03 846 24.98 8.3 47 46 -2.6 27.4
17:45 1017 30.03 846 24.98 8.4 47.1 46 -2.5 27.5
17:50 1017 30.03 846 24.98 8.5 47.3 47 -2.2 28
17:55 1017 30.03 846 24.98 8.4 47.1 47 -2.1 28.2
18:00 1017 30.03 846 24.98 8.1 46.6 49 -2 28.3
18:05 1017 30.03 846 24.98 8.1 46.6 48 -2.2 28.1
18:10 1017 30.03 846 24.98 7.8 46 51 -1.8 28.8
18:15 1017 30.03 846 24.98 7.7 45.8 51 -1.7 28.9
18:20 1017 30.03 846 24.98 7.5 45.5 51 -2 28.4
18:25 1017 30.03 846 24.98 7.5 45.6 52 -1.7 28.9
18:30 1017 30.03 846 24.98 7.6 45.7 51 -1.8 28.7
18:35 1017 30.03 846 24.98 7.8 46 51 -1.6 29.1
18:40 1017 30.03 846 24.98 7.4 45.4 53 -1.4 29.4
18:45 1017 30.03 846 24.98 7.1 44.8 55 -1.3 29.7
18:50 1017 30.03 846 24.98 6.8 44.3 57 -1.2 29.8
18:55 1017 30.03 846 24.98 6.7 44.1 56 -1.5 29.3
19:00 1017 30.03 846 24.98 6.9 44.4 56 -1.3 29.7
19:05 1017 30.03 846 24.98 6.9 44.5 55 -1.4 29.4
19:10 1017 30.03 846 24.98 7.1 44.8 55 -1.2 29.9
19:15 1017 30.03 846 24.98 7.2 44.9 55 -1.1 29.9
19:20 1017 30.03 846 24.98 7.2 44.9 56 -0.9 30.3
19:25 1017 30.03 846 24.98 7.1 44.7 57 -1 30.2
19:30 1017 30.03 846 24.98 6.9 44.4 58 -0.8 30.5
19:35 1017 30.03 846 24.98 7 44.6 55 -1.4 29.5
19:40 1017 30.03 846 24.98 7.5 45.4 54 -1.1 29.9
19:45 1017 30.03 846 24.98 7.6 45.7 53 -1.2 29.8
19:50 1017 30.03 846 24.98 7.7 45.9 53 -1.2 29.9
19:55 1017 30.03 846 24.98 7.7 45.9 55 -0.8 30.5
20:00 1017 30.03 846 24.98 7.6 45.6 54 -1.1 30.1
20:05 1017 30.03 846 24.98 7.7 45.8 55 -0.8 30.5
20:10 1017 30.03 846 24.98 7.7 45.9 54 -0.9 30.4
20:15 1017 30.03 846 24.98 7.6 45.8 54 -1 30.2
20:20 1017 30.03 846 24.98 7.7 45.9 54 -0.9 30.3
20:25 1017 30.03 846 24.98 7.7 45.8 54 -0.9 30.3
20:30 1017 30.03 846 24.98 7.6 45.7 55 -0.9 30.4
20:35 1017 30.03 846 24.98 7.5 45.4 55 -0.9 30.3
20:40 1017 30.03 846 24.98 7.4 45.3 56 -0.9 30.5
20:45 1017 30.03 846 24.98 7.4 45.3 55 -1 30.3
20:50 1017 30.03 846 24.98 7.5 45.6 55 -0.9 30.4
20:55 1017 30.03 846 24.98 7.6 45.6 56 -0.7 30.8
21:00 1017 30.03 846 24.98 7.5 45.4 56 -0.7 30.8
21:05 1017 30.03 846 24.98 7.5 45.5 55 -0.9 30.4
21:10 1017 30.03 846 24.98 7.6 45.6 56 -0.6 31
21:15 1017 30.03 846 24.98 7.2 44.9 57 -0.7 30.8
21:20 1017 30.03 846 24.98 7.1 44.7 58 -0.7 30.7
21:25 1017 30.03 846 24.98 7 44.7 57 -0.8 30.6
21:30 1017 30.03 846 24.98 7 44.6 57 -0.8 30.5
21:35 1017 30.03 846 24.98 7 44.6 57 -0.8 30.5
21:40 1017 30.03 846 24.98 7.1 44.8 56 -1 30.1
21:45 1017 30.03 846 24.98 7.2 45 56 -0.9 30.3
21:50 1017 30.03 846 24.98 7 44.7 57 -1 30.3
21:55 1016 30 846 24.98 7.1 44.7 57 -0.9 30.4
22:00 1016 30 846 24.98 7 44.7 57 -0.8 30.6
22:05 1016 30 846 24.98 7 44.5 57 -1 30.2
22:10 1016 30 846 24.98 7.1 44.8 56 -1.1 30
22:15 1016 30 846 24.98 7.3 45.1 56 -1 30.3
22:20 1016 30 846 24.98 7.3 45.1 56 -0.9 30.3
22:25 1016 30 846 24.98 7.2 44.9 57 -0.8 30.6
22:30 1016 30 846 24.98 7 44.5 58 -0.8 30.6
22:35 1016 30 846 24.98 6.8 44.2 57 -1.2 29.9
22:40 1016 30 846 24.98 7.1 44.8 56 -1 30.1
22:45 1016 30 845 24.95 7.4 45.3 54 -1.2 29.8
22:50 1016 30 845 24.95 7.5 45.5 54 -1.1 30.1
22:55 1016 30 845 24.95 7.5 45.6 53 -1.3 29.6
23:00 1016 30 845 24.95 7.8 46 54 -0.9 30.3
23:05 1016 30 845 24.95 7.5 45.5 54 -1.1 30.1
23:10 1016 30 845 24.95 7.5 45.4 55 -0.9 30.3
23:15 1016 30 845 24.95 7.3 45.2 55 -1.1 30
23:20 1016 30 845 24.95 7.3 45.2 56 -0.9 30.5
23:25 1016 30 845 24.95 7.2 44.9 56 -0.9 30.4
23:30 1016 30 845 24.95 7.1 44.7 57 -0.8 30.5
23:35 1016 30 845 24.95 7 44.6 57 -0.8 30.6
23:40 1016 30 845 24.95 6.8 44.2 59 -0.7 30.8
23:45 1016 30 845 24.95 6.5 43.7 60 -0.8 30.6
23:50 1016 30 845 24.95 6.4 43.6 60 -0.8 30.5
23:55 1016 30 845 24.95 6.6 43.8 58 -1 30.1
24:00 1016 30 845 24.95 6.9 44.4 57 -1 30.3